INFORMACIÓN METAR y TAF
METAR FOR SCVM
ADDS - METARS form results

(1732 UTC 17 August 2019)
Data provider http://aviationweather.gov/metar/data/
 
METAR text: SCVM 171700Z 28006KT CAVOK 16/09 Q1021
Conditions at: SCVM (VINA DEL MAR , CL) observed 1700 UTC 17 August 2019
Temperature: 16.0°C (61°F)
Dewpoint: 9.0°C (48°F) [RH = 63%]
Pressure (altimeter): 30.15 inches Hg (1021.0 mb)
Winds: from the W (280 degrees) at 7 MPH (6 knots; 3.1 m/s)
Visibility: 6 or more miles (10+ km)
Ceiling: ceiling and visibility are OK
Clouds: unknown
Weather: no significant weather observed at this time

 MAPA DE AEROPUERTO

 INFORMACIÓN DE PISTA
Pista 05 Longitud 5760 ft Ancho 98 ft
Elevación 461 ft Umbral desplazado 0 ft Rumbo de pista 52
Pista 23 Longitud 5760 ft Ancho 98 ft
Elevación 428 ft Umbral desplazado 0 ft Rumbo de pista 232

 FRECUANCIAS DEL AEROPUERTO
Tipo APP Nombre SANTIAGO A Frecuencia 128.1 MHZ
Tipo GND Nombre GND Frecuencia 121.85 MHZ
Tipo TWR Nombre TWR Frecuencia 118.4 MHZ

 RADIO AYUDAS DEL AEROPUERTO
Tipo NDB Nombre Salinas Frecuencia 390 KHZ